Time;durP1;ratioP1;P1;durP2;ratioP2;P2;SDS_P1;SDS_P2;PMS_P1;PMS_P2;Temp;Humidity;BMP_temperature;BMP_pressure;BME280_temperature;BME280_humidity;BME280_pressure;Samples;Min_cycle;Max_cycle;Signal;HPM_P1;HPM_P2
2023/04/23 00:01:19;;;;;;;37.88;21.80;;;;;;;;;;4996769;28;20052;-72
2023/04/23 00:03:46;;;;;;;33.58;20.15;;;;;;;;;;4979544;28;20495;-72
2023/04/23 00:06:12;;;;;;;41.03;21.70;;;;;;;;;;4998886;28;20050;-72
2023/04/23 00:08:39;;;;;;;41.58;21.60;;;;;;;;;;5001260;28;20046;-72
2023/04/23 00:11:05;;;;;;;41.72;23.10;;;;;;;;;;4975136;28;20052;-72
2023/04/23 00:13:31;;;;;;;38.63;22.27;;;;;;;;;;4974214;28;20077;-72
2023/04/23 00:15:57;;;;;;;38.03;22.50;;;7.90;99.90;;;;;;4982533;28;20050;-72
2023/04/23 00:18:23;;;;;;;44.08;22.35;;;;;;;;;;4979089;28;20583;-72
2023/04/23 00:20:49;;;;;;;45.08;23.90;;;;;;;;;;4982341;28;20044;-72
2023/04/23 00:23:15;;;;;;;48.05;25.40;;;;;;;;;;4984952;28;20052;-72
2023/04/23 00:25:41;;;;;;;46.78;26.52;;;;;;;;;;4986320;28;20416;-72
2023/04/23 00:28:07;;;;;;;46.17;25.20;;;;;;;;;;4979125;28;20054;-72
2023/04/23 00:30:33;;;;;;;47.63;25.10;;;;;;;;;;4984400;28;20161;-72
2023/04/23 00:33:00;;;;;;;52.78;25.77;;;;;;;;;;4974167;28;20049;-72
2023/04/23 00:35:26;;;;;;;45.67;24.23;;;;;;;;;;4992344;28;20163;-72
2023/04/23 00:37:52;;;;;;;43.20;24.85;;;;;;;;;;4997598;28;20030;-72
2023/04/23 00:40:17;;;;;;;43.60;24.63;;;7.70;99.90;;;;;;4983382;28;20069;-72
2023/04/23 00:42:44;;;;;;;44.08;23.17;;;;;;;;;;4980531;28;20081;-72
2023/04/23 00:45:11;;;;;;;45.90;25.23;;;;;;;;;;4982443;28;20779;-72
2023/04/23 00:47:37;;;;;;;49.00;25.80;;;;;;;;;;4981144;28;20107;-72
2023/04/23 00:50:03;;;;;;;46.70;24.45;;;7.60;99.90;;;;;;4981137;28;20049;-72
2023/04/23 00:52:29;;;;;;;48.40;26.33;;;;;;;;;;4997855;28;20092;-72
2023/04/23 00:54:55;;;;;;;52.22;28.15;;;;;;;;;;4956744;28;20071;-72
2023/04/23 00:57:22;;;;;;;51.45;25.50;;;;;;;;;;5001196;28;20129;-72
2023/04/23 00:59:48;;;;;;;55.17;26.92;;;7.60;99.90;;;;;;4984818;28;20112;-72
2023/04/23 01:02:14;;;;;;;58.20;30.45;;;;;;;;;;4984292;28;20128;-72
2023/04/23 01:04:42;;;;;;;56.28;29.90;;;;;;;;;;4987183;28;20041;-72
2023/04/23 01:07:08;;;;;;;66.72;31.35;;;8.40;99.90;;;;;;4971518;28;20054;-72
2023/04/23 01:09:34;;;;;;;62.88;31.45;;;;;;;;;;4982529;28;20511;-72
2023/04/23 01:12:01;;;;;;;62.65;31.75;;;;;;;;;;4962032;28;20054;-72
2023/04/23 01:14:27;;;;;;;71.28;35.70;;;;;;;;;;4982439;28;20057;-72
2023/04/23 01:16:53;;;;;;;71.80;34.05;;;;;;;;;;4998439;28;20085;-72
2023/04/23 01:19:19;;;;;;;74.75;35.40;;;;;;;;;;4977354;28;20050;-73
2023/04/23 01:21:45;;;;;;;76.15;36.70;;;;;;;;;;4986588;28;20126;-72
2023/04/23 01:24:11;;;;;;;93.20;40.53;;;;;;;;;;4987937;28;20053;-72
2023/04/23 01:26:38;;;;;;;91.70;41.17;;;;;;;;;;4984072;28;20045;-72
2023/04/23 01:29:05;;;;;;;84.90;39.00;;;;;;;;;;4978533;28;20046;-72
2023/04/23 01:31:31;;;;;;;86.47;41.42;;;;;;;;;;4967601;28;20049;-72
2023/04/23 01:33:58;;;;;;;96.70;41.95;;;;;;;;;;5001737;28;20037;-72
2023/04/23 01:36:24;;;;;;;104.22;43.03;;;;;;;;;;4976075;28;20058;-72
2023/04/23 01:38:50;;;;;;;90.60;39.95;;;;;;;;;;4991320;28;20054;-72
2023/04/23 01:41:16;;;;;;;96.60;43.35;;;;;;;;;;4983860;28;20048;-72
2023/04/23 01:43:42;;;;;;;105.80;47.60;;;7.80;99.90;;;;;;4972763;28;20388;-73
2023/04/23 01:46:09;;;;;;;115.70;49.55;;;;;;;;;;4989092;28;20553;-72
2023/04/23 01:48:35;;;;;;;114.40;49.40;;;;;;;;;;4972788;28;20058;-72
2023/04/23 01:51:01;;;;;;;118.40;48.03;;;;;;;;;;4994216;28;20046;-72
2023/04/23 01:53:27;;;;;;;109.82;47.10;;;7.90;99.90;;;;;;4974866;28;20045;-72
2023/04/23 01:55:54;;;;;;;118.20;48.55;;;;;;;;;;4974222;28;20060;-72
2023/04/23 01:58:22;;;;;;;138.02;50.47;;;;;;;;;;4995741;28;20148;-72
2023/04/23 02:00:48;;;;;;;135.68;50.90;;;7.90;99.90;;;;;;4982553;28;20034;-73
2023/04/23 02:03:14;;;;;;;118.32;49.90;;;;;;;;;;4974165;28;20082;-72
2023/04/23 02:05:40;;;;;;;110.20;48.97;;;;;;;;;;4976060;28;20069;-72
2023/04/23 02:08:07;;;;;;;123.30;52.85;;;;;;;;;;4996915;28;20120;-72
2023/04/23 02:10:32;;;;;;;132.98;54.25;;;7.90;99.90;;;;;;4979416;28;20500;-72
2023/04/23 02:12:59;;;;;;;147.65;56.17;;;;;;;;;;4984709;28;20096;-72
2023/04/23 02:15:25;;;;;;;139.85;53.78;;;;;;;;;;4983537;28;20416;-72
2023/04/23 02:17:51;;;;;;;147.75;57.88;;;;;;;;;;4981211;28;20048;-72
2023/04/23 02:20:17;;;;;;;137.70;54.58;;;;;;;;;;4985022;28;20073;-73
2023/04/23 02:22:43;;;;;;;151.85;59.00;;;;;;;;;;4983647;28;20049;-72
2023/04/23 02:25:10;;;;;;;154.57;56.38;;;8.10;99.90;;;;;;4967463;28;20046;-72
2023/04/23 02:27:35;;;;;;;148.23;58.47;;;8.00;99.90;;;;;;4996466;28;20053;-72
2023/04/23 02:30:02;;;;;;;163.55;61.00;;;;;;;;;;4982746;28;20050;-72
2023/04/23 02:32:28;;;;;;;145.80;59.45;;;;;;;;;;4981344;28;20046;-72
2023/04/23 02:34:54;;;;;;;150.98;59.42;;;7.90;99.90;;;;;;4977909;28;20046;-72
2023/04/23 02:37:20;;;;;;;172.25;62.20;;;;;;;;;;4985021;28;20046;-72
2023/04/23 02:39:46;;;;;;;151.82;60.53;;;;;;;;;;4993936;28;20092;-72
2023/04/23 02:42:15;;;;;;;180.13;62.72;;;;;;;;;;4984322;28;20053;-73
2023/04/23 02:44:40;;;;;;;155.88;60.83;;;;;;;;;;4974688;28;20675;-72
2023/04/23 02:47:06;;;;;;;148.18;60.35;;;;;;;;;;4984459;28;20049;-72
2023/04/23 02:49:32;;;;;;;217.40;66.32;;;;;;;;;;4984944;28;20834;-72
2023/04/23 02:51:58;;;;;;;174.90;65.40;;;;;;;;;;4978680;28;20136;-72
2023/04/23 02:54:25;;;;;;;174.80;64.18;;;;;;;;;;4972754;28;20053;-72
2023/04/23 02:56:51;;;;;;;150.93;62.30;;;;;;;;;;4977124;28;20523;-73
2023/04/23 02:59:16;;;;;;;187.98;64.43;;;7.90;99.90;;;;;;4997605;28;20049;-72
2023/04/23 03:01:42;;;;;;;406.88;74.18;;;;;;;;;;4996622;28;20476;-72
2023/04/23 03:04:08;;;;;;;257.25;68.93;;;;;;;;;;4985628;28;20062;-72
2023/04/23 03:06:34;;;;;;;464.23;80.07;;;8.10;99.90;;;;;;4982704;28;20046;-72
2023/04/23 03:09:00;;;;;;;383.27;72.15;;;;;;;;;;4982967;28;20108;-72
2023/04/23 03:11:26;;;;;;;386.33;72.45;;;;;;;;;;4990353;28;20046;-72
2023/04/23 03:13:52;;;;;;;397.95;73.60;;;;;;;;;;4969486;28;20045;-72
2023/04/23 03:16:18;;;;;;;497.48;72.10;;;;;;;;;;4988729;28;20108;-72
2023/04/23 03:18:44;;;;;;;509.42;78.15;;;8.10;99.90;;;;;;4983881;28;20053;-72
2023/04/23 03:21:10;;;;;;;689.30;89.03;;;;;;;;;;4983302;28;20041;-72
2023/04/23 03:23:36;;;;;;;458.67;75.57;;;;;;;;;;4977907;28;20056;-72
2023/04/23 03:26:02;;;;;;;382.02;73.13;;;;;;;;;;4974923;28;20054;-72
2023/04/23 03:28:29;;;;;;;491.33;80.90;;;8.20;99.90;;;;;;4972557;28;20050;-72
2023/04/23 03:30:55;;;;;;;327.02;75.22;;;;;;;;;;4977066;28;20077;-72
2023/04/23 03:33:21;;;;;;;416.60;78.28;;;;;;;;;;4999886;28;20061;-72
2023/04/23 03:35:47;;;;;;;355.55;74.70;;;8.10;99.90;;;;;;4982434;28;20050;-73
2023/04/23 03:38:13;;;;;;;334.05;72.57;;;;;;;;;;4982968;28;20045;-72
2023/04/23 03:40:39;;;;;;;380.92;78.35;;;;;;;;;;4984385;28;20042;-73
2023/04/23 03:43:05;;;;;;;219.48;68.57;;;8.10;99.90;;;;;;4975866;28;20489;-72
2023/04/23 03:45:31;;;;;;;217.93;65.85;;;;;;;;;;4982633;28;20046;-72
2023/04/23 03:47:56;;;;;;;304.55;69.55;;;;;;;;;;4961480;28;20050;-73
2023/04/23 03:50:22;;;;;;;336.35;77.47;;;7.90;99.90;;;;;;4977328;28;20408;-73
2023/04/23 03:52:48;;;;;;;223.88;65.75;;;;;;;;;;4957194;28;20069;-72
2023/04/23 03:55:14;;;;;;;227.50;67.15;;;;;;;;;;4972943;28;20146;-73
2023/04/23 03:57:40;;;;;;;244.00;67.07;;;7.90;99.90;;;;;;4974074;28;20046;-73
2023/04/23 04:00:10;;;;;;;198.70;67.55;;;;;;;;;;5004757;28;20108;-73
2023/04/23 04:02:37;;;;;;;182.95;63.78;;;;;;;;;;4977727;28;20606;-72
2023/04/23 04:05:03;;;;;;;186.68;62.20;;;;;;;;;;4959759;28;20803;-72
2023/04/23 04:07:30;;;;;;;190.13;63.90;;;;;;;;;;4994287;28;20041;-72
2023/04/23 04:09:55;;;;;;;180.82;65.18;;;7.90;99.90;;;;;;4984517;28;20048;-72
2023/04/23 04:12:21;;;;;;;206.80;65.13;;;;;;;;;;4978246;28;20046;-72
2023/04/23 04:14:47;;;;;;;157.98;57.60;;;;;;;;;;4979002;28;20049;-72
2023/04/23 04:17:14;;;;;;;181.82;61.65;;;;;;;;;;4972039;28;20073;-72
2023/04/23 04:19:41;;;;;;;194.40;62.47;;;;;;;;;;4979919;28;20077;-72
2023/04/23 04:22:07;;;;;;;223.52;63.53;;;;;;;;;;4979504;28;20054;-72
2023/04/23 04:24:34;;;;;;;240.63;62.38;;;7.80;99.90;;;;;;4984788;28;20061;-73
2023/04/23 04:27:00;;;;;;;300.70;64.07;;;;;;;;;;4956734;28;20078;-72
2023/04/23 04:29:27;;;;;;;230.85;60.22;;;;;;;;;;4995285;28;20033;-73
2023/04/23 04:31:55;;;;;;;241.13;59.65;;;;;;;;;;4995054;28;20042;-71
2023/04/23 04:34:22;;;;;;;235.85;61.47;;;;;;;;;;4989133;28;20511;-71
2023/04/23 04:36:48;;;;;;;258.20;66.97;;;;;;;;;;4974150;28;20042;-73
2023/04/23 04:39:14;;;;;;;191.48;58.83;;;;;;;;;;4963652;28;20034;-71
2023/04/23 04:41:43;;;;;;;254.45;61.90;;;;;;;;;;4978922;28;20096;-71
2023/04/23 04:44:09;;;;;;;226.70;61.75;;;;;;;;;;4971775;28;20053;-71
2023/04/23 04:46:39;;;;;;;236.00;62.25;;;;;;;;;;4978959;28;20104;-71
2023/04/23 04:49:05;;;;;;;193.43;62.00;;;;;;;;;;4975759;28;20050;-69
2023/04/23 04:51:31;;;;;;;207.02;63.38;;;;;;;;;;4975049;28;20135;-72
2023/04/23 04:53:57;;;;;;;162.73;57.38;;;;;;;;;;4990919;28;20069;-70
2023/04/23 04:56:24;;;;;;;161.25;57.05;;;;;;;;;;4980898;28;20061;-73
2023/04/23 04:58:51;;;;;;;183.35;61.00;;;;;;;;;;4978186;28;20132;-71
2023/04/23 05:01:18;;;;;;;175.48;58.17;;;;;;;;;;4973370;28;20046;-70
2023/04/23 05:03:46;;;;;;;168.55;61.05;;;;;;;;;;4977520;28;20057;-70
2023/04/23 05:06:13;;;;;;;167.82;60.17;;;;;;;;;;4962766;28;20042;-73
2023/04/23 05:08:40;;;;;;;170.82;60.88;;;;;;;;;;4961218;28;20412;-71
2023/04/23 05:11:06;;;;;;;176.02;61.95;;;;;;;;;;4952899;28;20045;-71
2023/04/23 05:13:32;;;;;;;168.25;58.80;;;;;;;;;;4958314;28;20129;-71
2023/04/23 05:15:58;;;;;;;165.45;61.08;;;;;;;;;;4961025;28;20042;-70
2023/04/23 05:18:24;;;;;;;171.60;59.95;;;;;;;;;;4958521;28;20037;-70
2023/04/23 05:20:50;;;;;;;176.15;62.08;;;;;;;;;;4971215;28;20047;-71
2023/04/23 05:23:17;;;;;;;182.55;61.58;;;;;;;;;;4958220;28;20053;-71
2023/04/23 05:25:43;;;;;;;172.05;62.08;;;;;;;;;;4993726;28;20099;-71
2023/04/23 05:28:09;;;;;;;159.07;59.85;;;;;;;;;;4976315;28;20033;-72
2023/04/23 05:30:35;;;;;;;151.23;56.92;;;;;;;;;;4976307;28;20038;-71
2023/04/23 05:33:04;;;;;;;151.07;59.63;;;;;;;;;;4971551;28;20085;-72
2023/04/23 05:35:30;;;;;;;149.02;57.60;;;;;;;;;;4989867;28;20046;-72
2023/04/23 05:37:56;;;;;;;159.55;58.72;;;;;;;;;;4973862;28;20065;-71
2023/04/23 05:40:22;;;;;;;160.82;59.08;;;;;;;;;;4957226;28;20088;-71
2023/04/23 05:42:48;;;;;;;152.07;59.08;;;;;;;;;;4973730;28;20168;-72
2023/04/23 05:45:17;;;;;;;156.02;61.38;;;;;;;;;;4983471;28;20046;-70
2023/04/23 05:47:43;;;;;;;150.25;58.05;;;;;;;;;;4960764;28;20484;-71
2023/04/23 05:50:10;;;;;;;138.57;58.15;;;;;;;;;;4979613;28;20099;-70
2023/04/23 05:52:36;;;;;;;145.00;57.95;;;;;;;;;;4985647;28;20050;-71
2023/04/23 05:55:02;;;;;;;134.15;57.35;;;;;;;;;;4975893;28;20074;-71
2023/04/23 05:57:28;;;;;;;110.28;47.17;;;;;;;;;;4957982;28;20583;-73
2023/04/23 05:59:54;;;;;;;121.50;52.90;;;;;;;;;;4981799;28;20054;-72
2023/04/23 06:02:20;;;;;;;128.82;55.25;;;;;;;;;;4977696;28;20128;-72
2023/04/23 06:04:46;;;;;;;125.55;54.97;;;;;;;;;;4978222;28;20696;-72
2023/04/23 06:07:14;;;;;;;117.32;51.70;;;;;;;;;;4997148;28;20113;-72
2023/04/23 06:09:40;;;;;;;124.90;56.08;;;;;;;;;;4985487;28;20061;-72
2023/04/23 06:12:06;;;;;;;105.60;47.28;;;;;;;;;;4978431;28;20046;-71
2023/04/23 06:14:32;;;;;;;93.65;47.95;;;;;;;;;;4979382;28;20050;-71
2023/04/23 06:16:58;;;;;;;85.82;45.20;;;;;;;;;;4980965;28;20518;-72
2023/04/23 06:19:26;;;;;;;84.00;43.03;;;;;;;;;;4984165;28;20135;-73
2023/04/23 06:21:52;;;;;;;77.03;39.88;;;;;;;;;;4983193;28;20080;-71
2023/04/23 06:24:18;;;;;;;78.97;41.55;;;;;;;;;;4996741;28;20144;-72
2023/04/23 06:26:44;;;;;;;73.75;41.72;;;;;;;;;;4981822;28;20071;-72
2023/04/23 06:29:10;;;;;;;64.72;37.95;;;;;;;;;;4981454;28;20104;-73
2023/04/23 06:31:36;;;;;;;61.65;36.60;;;;;;;;;;4984199;28;20100;-73
2023/04/23 06:34:02;;;;;;;57.08;34.65;;;;;;;;;;4960990;28;20046;-70
2023/04/23 06:36:28;;;;;;;54.53;32.90;;;;;;;;;;4984489;28;20142;-72
2023/04/23 06:38:54;;;;;;;57.60;35.88;;;;;;;;;;5000129;28;20074;-71
2023/04/23 06:41:20;;;;;;;54.05;30.25;;;;;;;;;;4981056;28;20579;-72
2023/04/23 06:43:47;;;;;;;54.33;35.42;;;;;;;;;;4965326;28;20053;-70
2023/04/23 06:46:14;;;;;;;53.58;34.08;;;;;;;;;;4975126;28;20093;-73
2023/04/23 06:48:39;;;;;;;52.88;30.92;;;;;;;;;;4985113;28;20103;-73
2023/04/23 06:51:06;;;;;;;52.70;32.47;;;;;;;;;;4980539;28;20050;-73
2023/04/23 06:53:32;;;;;;;48.72;31.00;;;14.10;99.90;;;;;;4981061;28;20053;-73
2023/04/23 06:55:58;;;;;;;50.78;31.75;;;;;;;;;;4998167;28;20076;-73
2023/04/23 06:58:30;;;;;;;53.03;32.47;;;;;;;;;;4975058;28;20062;-74
2023/04/23 07:00:58;;;;;;;49.35;31.38;;;14.30;99.90;;;;;;4981969;28;20104;-73
2023/04/23 07:03:25;;;;;;;46.92;29.65;;;;;;;;;;4975050;28;20050;-73
2023/04/23 07:05:51;;;;;;;42.08;27.50;;;;;;;;;;4975422;28;20050;-74
2023/04/23 07:08:17;;;;;;;44.25;29.05;;;;;;;;;;4979620;28;20076;-73
2023/04/23 07:10:43;;;;;;;43.50;28.58;;;;;;;;;;4979098;28;20053;-72
2023/04/23 07:13:09;;;;;;;44.90;28.58;;;;;;;;;;4984064;28;20054;-72
2023/04/23 07:15:38;;;;;;;45.08;30.38;;;;;;;;;;4984774;28;20045;-72
2023/04/23 07:18:05;;;;;;;48.90;29.80;;;13.10;99.90;;;;;;4995479;28;20043;-72
2023/04/23 07:20:31;;;;;;;45.28;30.15;;;;;;;;;;4965928;28;20046;-73
2023/04/23 07:22:57;;;;;;;46.92;30.17;;;12.90;99.90;;;;;;4974506;28;20125;-72
2023/04/23 07:25:25;;;;;;;44.15;29.67;;;;;;;;;;4961623;28;20108;-73
2023/04/23 07:27:52;;;;;;;50.25;31.58;;;;;;;;;;4985571;28;20057;-73
2023/04/23 07:30:18;;;;;;;43.50;28.23;;;;;;;;;;4983538;28;20790;-72
2023/04/23 07:32:44;;;;;;;45.97;28.30;;;;;;;;;;4973705;28;20144;-73
2023/04/23 07:35:10;;;;;;;48.97;30.27;;;;;;;;;;4976490;28;20567;-73
2023/04/23 07:37:36;;;;;;;46.15;30.02;;;;;;;;;;4976138;28;20121;-73
2023/04/23 07:40:04;;;;;;;45.00;29.00;;;;;;;;;;4980703;28;20480;-73
2023/04/23 07:42:30;;;;;;;44.60;27.58;;;;;;;;;;4995990;28;20108;-72
2023/04/23 07:44:55;;;;;;;44.88;25.80;;;12.90;99.90;;;;;;4995786;28;20054;-72
2023/04/23 07:47:21;;;;;;;43.30;28.42;;;;;;;;;;4976306;28;20133;-74
2023/04/23 07:49:47;;;;;;;46.13;29.77;;;12.90;99.90;;;;;;4979065;28;20066;-72
2023/04/23 07:52:14;;;;;;;40.20;25.15;;;;;;;;;;4978996;28;20042;-73
2023/04/23 07:54:40;;;;;;;42.53;27.20;;;;;;;;;;4967951;28;20105;-74
2023/04/23 07:57:06;;;;;;;46.58;28.13;;;;;;;;;;4970233;28;20046;-74
2023/04/23 07:59:32;;;;;;;45.95;27.55;;;;;;;;;;4972187;28;20050;-75
2023/04/23 08:01:58;;;;;;;41.53;26.13;;;;;;;;;;4975066;28;20038;-73
2023/04/23 08:04:24;;;;;;;38.53;24.85;;;;;;;;;;4976607;28;20050;-72
2023/04/23 08:06:51;;;;;;;36.58;24.00;;;;;;;;;;4991336;28;20046;-73
2023/04/23 08:09:17;;;;;;;39.78;26.13;;;;;;;;;;4978007;28;20050;-74
2023/04/23 08:11:43;;;;;;;39.10;25.60;;;;;;;;;;4972526;28;20053;-74
2023/04/23 08:14:09;;;;;;;37.05;23.52;;;13.40;99.90;;;;;;4995548;28;20054;-73
2023/04/23 08:16:35;;;;;;;35.35;23.08;;;;;;;;;;4973056;28;20042;-75
2023/04/23 08:19:01;;;;;;;38.13;23.90;;;;;;;;;;4974185;28;20467;-77
2023/04/23 08:21:27;;;;;;;38.17;24.55;;;;;;;;;;4973804;28;20058;-76
2023/04/23 08:23:54;;;;;;;38.92;24.83;;;;;;;;;;4991718;28;20051;-75
2023/04/23 08:26:19;;;;;;;39.47;24.55;;;13.60;99.90;;;;;;4972796;28;20054;-74
2023/04/23 08:28:45;;;;;;;38.90;24.92;;;13.80;99.90;;;;;;4976363;28;20042;-74
2023/04/23 08:31:12;;;;;;;32.30;21.63;;;;;;;;;;4991632;28;20042;-75
2023/04/23 08:33:38;;;;;;;35.00;22.17;;;;;;;;;;4973434;28;20042;-73
2023/04/23 08:36:04;;;;;;;36.40;23.45;;;;;;;;;;4978533;28;20428;-79
2023/04/23 08:41:23;;;;;;;32.25;21.48;;;14.20;99.90;;;;;;5015623;23;20056;-74
2023/04/23 08:43:51;;;;;;;33.05;21.67;;;;;;;;;;4988037;28;20053;-74
2023/04/23 08:46:18;;;;;;;30.60;20.17;;;14.10;99.90;;;;;;4987861;28;20081;-75
2023/04/23 08:48:46;;;;;;;34.13;22.02;;;;;;;;;;4988506;28;20038;-75
2023/04/23 08:51:16;;;;;;;31.90;19.58;;;14.40;99.90;;;;;;4981726;28;20058;-73
2023/04/23 08:53:44;;;;;;;28.08;18.65;;;14.50;99.90;;;;;;4978016;28;20050;-74
2023/04/23 08:56:13;;;;;;;26.45;17.35;;;14.50;99.90;;;;;;4981992;28;20054;-72
2023/04/23 08:58:39;;;;;;;23.98;16.15;;;;;;;;;;5001546;28;20105;-73
2023/04/23 09:01:06;;;;;;;22.83;14.20;;;14.40;99.90;;;;;;4979331;28;20074;-72
2023/04/23 09:03:32;;;;;;;25.83;17.05;;;14.80;99.90;;;;;;5001236;28;20429;-72
2023/04/23 09:05:58;;;;;;;24.13;14.02;;;;;;;;;;5001232;28;20514;-71
2023/04/23 09:08:25;;;;;;;20.20;13.63;;;15.10;99.90;;;;;;4969557;28;20235;-73
2023/04/23 09:10:52;;;;;;;20.67;13.48;;;;;;;;;;4981143;28;20648;-72
2023/04/23 09:13:18;;;;;;;17.20;10.43;;;;;;;;;;4982613;28;20058;-73
2023/04/23 09:15:44;;;;;;;13.93;9.10;;;15.60;99.90;;;;;;4981833;28;20049;-73
2023/04/23 09:18:10;;;;;;;16.75;10.43;;;;;;;;;;4977579;28;20049;-74
2023/04/23 09:20:36;;;;;;;20.83;10.48;;;;;;;;;;4974836;28;20530;-79
2023/04/23 09:23:07;;;;;;;18.27;10.50;;;15.50;99.90;;;;;;4995519;28;20053;-72
2023/04/23 09:25:33;;;;;;;14.55;8.95;;;;;;;;;;4981762;28;20053;-74
2023/04/23 09:28:00;;;;;;;15.43;9.60;;;15.50;99.90;;;;;;4981454;28;20492;-74
2023/04/23 09:30:26;;;;;;;16.90;8.38;;;;;;;;;;4969778;28;20057;-74
2023/04/23 09:32:52;;;;;;;15.98;9.00;;;;;;;;;;4979266;28;20042;-73
2023/04/23 09:35:19;;;;;;;16.58;8.82;;;15.70;99.90;;;;;;4979498;28;20609;-74
2023/04/23 09:37:48;;;;;;;12.48;7.72;;;15.50;99.90;;;;;;4981439;28;20447;-74
2023/04/23 09:40:23;;;;;;;15.75;8.73;;;15.60;99.90;;;;;;5002011;28;20050;-74
2023/04/23 09:42:51;;;;;;;;;;;15.50;99.90;;;;;;4984182;28;20045;-74
2023/04/23 09:45:17;;;;;;;13.60;7.10;;;;;;;;;;5004471;28;20618;-74
2023/04/23 09:47:51;;;;;;;12.80;5.75;;;16.00;99.90;;;;;;4986756;28;20053;-74
2023/04/23 09:50:17;;;;;;;11.02;6.53;;;;;;;;;;4985879;28;20108;-72
2023/04/23 09:52:43;;;;;;;12.95;6.32;;;;;;;;;;4983602;28;20046;-73
2023/04/23 09:55:09;;;;;;;11.63;4.40;;;16.60;99.90;;;;;;4968436;28;20091;-72
2023/04/23 09:57:36;;;;;;;10.63;5.25;;;16.70;99.90;;;;;;4967045;28;20042;-72
2023/04/23 10:00:15;;;;;;;12.13;5.85;;;16.40;99.90;;;;;;4984954;28;20037;-72
2023/04/23 10:02:46;;;;;;;10.77;4.88;;;16.70;99.90;;;;;;5000569;28;20053;-73
2023/04/23 10:05:16;;;;;;;10.93;5.03;;;16.50;99.90;;;;;;5002101;28;20049;-73
2023/04/23 10:07:44;;;;;;;8.07;4.10;;;16.70;99.90;;;;;;5002184;28;20535;-72
2023/04/23 10:13:34;;;;;;;9.27;4.18;;;16.40;99.90;;;;;;4965839;28;20053;-73
2023/04/23 10:16:01;;;;;;;12.75;4.22;;;16.20;99.90;;;;;;4940260;28;20074;-73
2023/04/23 10:18:30;;;;;;;8.50;4.10;;;16.40;99.90;;;;;;4936571;28;20061;-71
2023/04/23 10:20:56;;;;;;;6.30;4.40;;;16.70;99.90;;;;;;4961817;28;20062;-74
2023/04/23 10:23:23;;;;;;;8.38;4.18;;;16.90;99.90;;;;;;4950895;28;20057;-73
2023/04/23 10:25:52;;;;;;;11.10;3.28;;;17.10;99.90;;;;;;4946719;28;20161;-73
2023/04/23 10:28:25;;;;;;;7.50;3.80;;;17.30;99.90;;;;;;4947711;28;20065;-73
2023/04/23 10:30:52;;;;;;;7.90;3.22;;;17.40;99.90;;;;;;4950025;28;20097;-73
2023/04/23 10:33:19;;;;;;;7.68;3.33;;;17.50;99.90;;;;;;4940132;28;20397;-73
2023/04/23 10:35:46;;;;;;;7.68;3.40;;;17.60;99.90;;;;;;4966900;28;20098;-73
2023/04/23 10:38:13;;;;;;;7.78;3.58;;;17.80;99.90;;;;;;4944492;28;20059;-73
2023/04/23 10:40:39;;;;;;;5.90;2.95;;;;;;;;;;4965238;28;20206;-76
2023/04/23 10:43:05;;;;;;;7.95;3.35;;;17.50;99.90;;;;;;4960377;28;20057;-73
2023/04/23 10:45:31;;;;;;;8.07;2.88;;;;;;;;;;4989595;28;20418;-73
2023/04/23 10:47:58;;;;;;;7.22;2.63;;;;;;;;;;4990273;28;20057;-75
2023/04/23 10:50:28;;;;;;;5.50;2.78;;;17.20;99.90;;;;;;4981443;28;20523;-74
2023/04/23 10:52:56;;;;;;;8.43;3.05;;;17.10;99.90;;;;;;4987934;28;20081;-75
2023/04/23 10:55:31;;;;;;;5.65;3.38;;;17.00;99.90;;;;;;4989983;28;20084;-75
2023/04/23 10:57:57;;;;;;;11.70;3.85;;;;;;;;;;4989410;28;20598;-75
2023/04/23 11:00:23;;;;;;;6.50;2.42;;;17.00;99.90;;;;;;4974540;28;20077;-76
2023/04/23 11:02:49;;;;;;;5.47;2.88;;;17.10;99.90;;;;;;5005927;28;20050;-75
2023/04/23 11:05:16;;;;;;;7.00;3.10;;;17.10;99.90;;;;;;4990310;28;20049;-75
2023/04/23 11:07:42;;;;;;;8.45;2.58;;;;;;;;;;4987292;28;20137;-75
2023/04/23 11:10:12;;;;;;;9.85;3.40;;;17.30;99.90;;;;;;4989274;28;20141;-75
2023/04/23 11:12:39;;;;;;;8.10;3.13;;;17.30;99.90;;;;;;4987580;28;20084;-75
2023/04/23 11:15:17;;;;;;;6.72;1.90;;;17.60;99.90;;;;;;5006650;28;20053;-74
2023/04/23 11:17:43;;;;;;;8.48;2.53;;;;;;;;;;5001228;28;20694;-75
2023/04/23 11:20:19;;;;;;;7.90;2.65;;;17.40;99.90;;;;;;5007634;28;20114;-75
2023/04/23 11:22:46;;;;;;;7.47;3.47;;;17.50;99.90;;;;;;5005551;28;20049;-75
2023/04/23 11:25:19;;;;;;;10.95;2.97;;;17.50;99.90;;;;;;4986423;28;20054;-75
2023/04/23 11:27:46;;;;;;;8.27;2.30;;;17.70;99.90;;;;;;4989761;28;20054;-75
2023/04/23 11:30:13;;;;;;;7.53;2.17;;;17.50;99.90;;;;;;4988225;28;20037;-75
2023/04/23 11:32:40;;;;;;;11.88;2.50;;;17.20;99.90;;;;;;4990197;28;20057;-75
2023/04/23 11:35:08;;;;;;;5.53;2.45;;;17.50;99.90;;;;;;4986815;28;20053;-73
2023/04/23 11:37:39;;;;;;;8.10;2.40;;;17.30;99.90;;;;;;5005585;28;20041;-73
2023/04/23 11:40:09;;;;;;;10.38;1.83;;;17.40;99.90;;;;;;4984885;28;20050;-72
2023/04/23 11:43:03;;;;;;;6.65;1.63;;;17.30;99.90;;;;;;4966529;28;20092;-73
2023/04/23 11:45:29;;;;;;;7.90;2.05;;;;;;;;;;4974817;28;20081;-72
2023/04/23 11:47:57;;;;;;;6.57;2.00;;;17.40;99.90;;;;;;4983522;28;20461;-72
2023/04/23 11:50:25;;;;;;;5.10;1.73;;;17.80;99.90;;;;;;4987670;28;20046;-72
2023/04/23 11:52:52;;;;;;;7.38;1.83;;;17.70;99.90;;;;;;5005473;28;20073;-72
2023/04/23 11:55:18;;;;;;;7.18;1.38;;;17.60;99.90;;;;;;5005865;28;20061;-73
2023/04/23 11:57:45;;;;;;;7.80;1.52;;;17.60;99.90;;;;;;4985045;28;20035;-71
2023/04/23 12:00:17;;;;;;;8.18;1.17;;;17.40;99.90;;;;;;4985372;28;20041;-76
2023/04/23 12:03:15;;;;;;;6.22;1.13;;;17.40;99.90;;;;;;4986804;28;20389;-71
2023/04/23 12:05:43;;;;;;;7.97;0.93;;;17.60;99.90;;;;;;4969897;28;20088;-73
2023/04/23 12:08:10;;;;;;;6.28;1.23;;;17.50;99.90;;;;;;4989003;28;20053;-73
2023/04/23 12:10:53;;;;;;;7.30;1.40;;;17.60;99.90;;;;;;4997752;28;20056;-73
2023/04/23 12:13:29;;;;;;;15.25;2.55;;;17.80;99.90;;;;;;4989562;28;20080;-72
2023/04/23 12:15:56;;;;;;;8.20;1.63;;;17.70;99.90;;;;;;4979520;28;20038;-71
2023/04/23 12:18:39;;;;;;;5.47;1.33;;;17.70;99.90;;;;;;5003521;28;20080;-72
2023/04/23 12:21:09;;;;;;;3.70;1.38;;;17.80;99.90;;;;;;4984821;28;20489;-71
2023/04/23 12:23:37;;;;;;;4.68;1.45;;;17.80;99.90;;;;;;5003650;28;20829;-72
2023/04/23 12:26:03;;;;;;;6.03;1.73;;;17.80;99.90;;;;;;4987082;28;20054;-73
2023/04/23 12:28:29;;;;;;;6.43;1.48;;;;;;;;;;5005269;28;20101;-76
2023/04/23 12:31:00;;;;;;;9.00;1.40;;;17.80;99.90;;;;;;4983659;28;20148;-73
2023/04/23 12:33:29;;;;;;;6.75;0.93;;;17.90;99.90;;;;;;4982096;28;20072;-73
2023/04/23 12:35:56;;;;;;;6.00;1.08;;;18.10;99.90;;;;;;4982720;28;20038;-77
2023/04/23 12:38:25;;;;;;;6.45;1.42;;;;;;;;;;4982102;28;20089;-75
2023/04/23 12:40:56;;;;;;;6.93;2.00;;;17.80;99.90;;;;;;4978401;28;20403;-73
2023/04/23 12:43:22;;;;;;;7.05;1.20;;;17.70;99.90;;;;;;4997179;28;20515;-73
2023/04/23 12:45:48;;;;;;;4.75;1.30;;;;;;;;;;4978801;28;20046;-76
2023/04/23 12:48:14;;;;;;;6.38;0.90;;;;;;;;;;4987579;28;20050;-71
2023/04/23 12:50:40;;;;;;;5.28;1.27;;;17.70;99.90;;;;;;4987917;28;20041;-71
2023/04/23 12:53:06;;;;;;;7.05;1.10;;;;;;;;;;5001906;28;20049;-73
2023/04/23 12:55:33;;;;;;;5.63;1.10;;;;;;;;;;5005756;28;20049;-75
2023/04/23 12:57:59;;;;;;;8.80;1.45;;;17.80;99.90;;;;;;4981640;28;20044;-73
2023/04/23 13:00:25;;;;;;;5.32;0.88;;;17.80;99.90;;;;;;4985072;28;20038;-74
2023/04/23 13:02:51;;;;;;;7.82;1.30;;;;;;;;;;4984355;28;20053;-73
2023/04/23 13:05:17;;;;;;;6.20;1.02;;;;;;;;;;4987855;28;20067;-71
2023/04/23 13:07:43;;;;;;;5.53;1.20;;;;;;;;;;5004081;28;20141;-78
2023/04/23 13:10:56;;;;;;;3.28;1.10;;;18.20;99.90;;;;;;4983932;28;20567;-79
2023/04/23 13:14:08;;;;;;;7.00;1.00;;;18.10;99.90;;;;;;4882795;29;20128;-75
2023/04/23 13:16:42;;;;;;;6.43;1.05;;;18.00;99.90;;;;;;4906143;29;20503;-77
2023/04/23 13:22:28;;;;;;;4.28;0.88;;;16.70;99.90;;;;;;4887280;29;20045;-75
2023/04/23 13:24:56;;;;;;;3.47;0.80;;;17.90;99.90;;;;;;4873336;29;20108;-75
2023/04/23 13:27:27;;;;;;;6.25;1.25;;;17.70;99.90;;;;;;4885752;29;20135;-72
2023/04/23 13:29:53;;;;;;;9.68;1.40;;;;;;;;;;4918966;29;20047;-71
2023/04/23 13:32:19;;;;;;;4.82;0.98;;;;;;;;;;4928662;29;20110;-72
2023/04/23 13:34:45;;;;;;;4.82;1.45;;;;;;;;;;4924825;29;20813;-73
2023/04/23 13:37:11;;;;;;;5.63;1.10;;;17.60;99.90;;;;;;4925525;29;20120;-73
2023/04/23 13:39:38;;;;;;;5.43;1.00;;;17.70;99.90;;;;;;4935193;29;20138;-72
2023/04/23 13:42:04;;;;;;;8.73;1.63;;;;;;;;;;4926208;29;20047;-72
2023/04/23 13:44:32;;;;;;;3.08;0.93;;;17.90;99.90;;;;;;4929742;29;20450;-73
2023/04/23 13:46:58;;;;;;;6.18;0.95;;;18.10;99.90;;;;;;4920781;29;20147;-73